createdAt,value
2022-09-20T04:00:31.733Z,12.40
2022-09-20T04:05:31.764Z,12.67
2022-09-20T04:10:31.592Z,12.79
2022-09-20T04:15:31.552Z,12.84
2022-09-20T04:20:31.892Z,12.80
2022-09-20T04:25:31.434Z,12.84
2022-09-20T04:30:31.391Z,12.93
2022-09-20T04:35:31.335Z,12.94
2022-09-20T04:40:31.355Z,12.91
2022-09-20T04:45:31.281Z,12.85
2022-09-20T04:50:31.174Z,12.88
2022-09-20T04:55:31.109Z,12.87
2022-09-20T05:00:31.089Z,12.89
2022-09-20T05:05:31.028Z,12.88
2022-09-20T05:10:30.947Z,12.91
2022-09-20T05:15:30.912Z,12.97
2022-09-20T05:20:30.871Z,12.98
2022-09-20T05:25:30.801Z,13.09
2022-09-20T05:30:30.747Z,13.21
2022-09-20T05:35:30.697Z,13.32
2022-09-20T05:40:30.821Z,13.36
2022-09-20T05:45:30.607Z,13.38
2022-09-20T05:50:30.516Z,13.44
2022-09-20T05:55:30.479Z,13.43
2022-09-20T06:00:30.601Z,13.57
2022-09-20T06:05:30.403Z,13.63
2022-09-20T06:10:30.316Z,13.77
2022-09-20T06:15:30.269Z,13.88
2022-09-20T06:20:30.219Z,14.06
2022-09-20T06:25:30.161Z,14.09
2022-09-20T06:30:30.215Z,14.26
2022-09-20T06:35:30.045Z,14.38
2022-09-20T06:40:30.088Z,14.36
2022-09-20T06:45:29.949Z,14.49
2022-09-20T06:50:29.879Z,14.44
2022-09-20T06:55:29.944Z,14.58
2022-09-20T07:00:29.833Z,14.61
2022-09-20T07:05:29.713Z,14.97
2022-09-20T07:10:29.683Z,15.18
2022-09-20T07:15:29.606Z,15.58
2022-09-20T07:20:29.598Z,15.71
2022-09-20T07:25:29.497Z,15.68
2022-09-20T07:30:29.463Z,16.61
2022-09-20T07:35:29.385Z,19.05
2022-09-20T07:40:29.444Z,18.74
2022-09-20T07:45:29.306Z,18.38
2022-09-20T07:50:29.236Z,19.38
2022-09-20T07:55:29.167Z,19.77
2022-09-20T08:00:29.155Z,20.35
2022-09-20T08:05:29.051Z,19.36
2022-09-20T08:10:29.012Z,17.97
2022-09-20T08:15:28.942Z,18.28
2022-09-20T08:20:28.935Z,20.27
2022-09-20T08:25:28.833Z,21.04
2022-09-20T08:30:28.800Z,20.67
2022-09-20T08:35:28.724Z,19.53
2022-09-20T08:40:28.742Z,18.82
2022-09-20T08:45:35.695Z,18.55
2022-09-20T08:50:29.583Z,19.55
2022-09-20T08:55:28.504Z,21.94
2022-09-20T09:00:28.493Z,21.30
2022-09-20T09:05:28.399Z,20.89
2022-09-20T09:10:28.375Z,18.16
2022-09-20T09:15:28.294Z,17.49
2022-09-20T09:20:28.272Z,16.82
2022-09-20T09:25:28.181Z,16.46
2022-09-20T09:30:28.504Z,16.59
2022-09-20T09:35:28.070Z,16.49
2022-09-20T09:40:28.107Z,16.78
2022-09-20T09:45:28.115Z,17.20
2022-09-20T09:50:27.929Z,17.55
2022-09-20T09:55:27.852Z,17.36
2022-09-20T10:00:27.959Z,17.42
2022-09-20T10:05:27.759Z,17.05
2022-09-20T10:10:27.705Z,16.78
2022-09-20T10:15:27.636Z,16.60
2022-09-20T10:20:27.615Z,16.86
2022-09-20T10:25:27.525Z,17.49
2022-09-20T10:30:27.485Z,18.16
2022-09-20T10:35:27.419Z,18.93
2022-09-20T10:40:27.446Z,18.81
2022-09-20T10:45:59.110Z,18.61
2022-09-20T10:50:28.273Z,18.17
2022-09-20T10:55:27.199Z,17.97
2022-09-20T11:00:27.172Z,18.15
2022-09-20T11:05:27.086Z,18.30
2022-09-20T11:10:27.049Z,18.49
2022-09-20T11:15:26.971Z,18.06
2022-09-20T11:20:26.948Z,17.67
2022-09-20T11:25:29.632Z,18.07
2022-09-20T11:30:26.819Z,18.24
2022-09-20T11:35:26.754Z,18.44
2022-09-20T11:40:26.881Z,18.96
2022-09-20T11:45:28.566Z,19.18
2022-09-20T11:50:26.609Z,18.25
2022-09-20T11:55:26.531Z,18.50
2022-09-20T12:00:26.579Z,18.81
2022-09-20T12:05:26.426Z,18.69
2022-09-20T12:10:26.392Z,18.62
2022-09-20T12:15:26.315Z,18.70
2022-09-20T12:20:26.304Z,18.87
2022-09-20T12:25:26.202Z,18.89
2022-09-20T12:30:26.169Z,18.06
2022-09-20T12:35:26.088Z,17.87
2022-09-20T12:40:26.123Z,17.86
2022-09-20T12:45:26.033Z,18.03
2022-09-20T12:50:25.951Z,18.03
2022-09-20T12:55:25.875Z,18.05
2022-09-20T13:00:25.862Z,18.23
2022-09-20T13:05:25.764Z,18.56
2022-09-20T13:10:25.719Z,19.08
2022-09-20T13:15:25.694Z,19.76
2022-09-20T13:20:25.618Z,19.79
2022-09-20T13:25:25.555Z,19.36
2022-09-20T13:30:25.500Z,18.93
2022-09-20T13:35:25.442Z,19.64
2022-09-20T13:40:25.460Z,19.64
2022-09-20T13:45:25.355Z,20.07
2022-09-20T13:50:25.285Z,20.31
2022-09-20T13:55:25.224Z,19.55
2022-09-20T14:00:25.198Z,19.79
2022-09-20T14:05:25.123Z,20.03
2022-09-20T14:10:25.064Z,19.48
2022-09-20T14:15:25.012Z,19.82
2022-09-20T14:20:24.978Z,19.42
2022-09-20T14:25:24.905Z,19.75
2022-09-20T14:30:24.846Z,19.09
2022-09-20T14:35:24.791Z,18.53
2022-09-20T14:40:24.842Z,18.28
2022-09-20T14:45:24.770Z,18.33
2022-09-20T14:50:24.619Z,18.45
2022-09-20T14:55:24.576Z,18.33
2022-09-20T15:00:24.596Z,18.18
2022-09-20T15:05:24.456Z,18.13
2022-09-20T15:10:24.413Z,18.08
2022-09-20T15:15:24.362Z,18.17
2022-09-20T15:20:24.841Z,18.27
2022-09-20T15:25:24.261Z,18.18
2022-09-20T15:30:24.206Z,17.92
2022-09-20T15:35:24.125Z,17.95
2022-09-20T15:40:24.137Z,17.78
2022-09-20T15:45:24.066Z,17.68
2022-09-20T15:50:23.981Z,17.42
2022-09-20T15:55:23.901Z,17.52
2022-09-20T16:00:23.911Z,17.29
2022-09-20T16:05:23.920Z,17.56
2022-09-20T16:10:23.737Z,17.41
2022-09-20T16:15:30.771Z,17.21
2022-09-20T16:20:23.625Z,17.36
2022-09-20T16:25:23.584Z,17.39
2022-09-20T16:30:23.527Z,17.24
2022-09-20T16:35:23.497Z,17.19
2022-09-20T16:40:23.449Z,17.19
2022-09-20T16:45:23.539Z,17.02
2022-09-20T16:50:23.304Z,17.10
2022-09-20T16:55:23.268Z,17.22
2022-09-20T17:00:23.190Z,17.09
2022-09-20T17:05:23.135Z,16.94
2022-09-20T17:10:23.079Z,16.79
2022-09-20T17:15:23.045Z,16.62
2022-09-20T17:20:22.968Z,16.37
2022-09-20T17:25:22.918Z,16.02
2022-09-20T17:30:22.872Z,15.99
2022-09-20T17:35:22.827Z,16.05
2022-09-20T17:40:22.809Z,16.10
2022-09-20T17:45:22.701Z,15.98
2022-09-20T17:50:22.650Z,15.95
2022-09-20T17:55:22.603Z,15.85
2022-09-20T18:00:22.554Z,15.79
2022-09-20T18:05:22.508Z,15.67
2022-09-20T18:10:22.416Z,15.63
2022-09-20T18:15:22.442Z,15.47
2022-09-20T18:20:22.337Z,15.29
2022-09-20T18:25:22.258Z,15.22
2022-09-20T18:30:22.229Z,15.28
2022-09-20T18:35:22.192Z,15.22
2022-09-20T18:40:22.137Z,15.20
2022-09-20T18:45:22.047Z,15.19
2022-09-20T18:50:21.997Z,15.31
2022-09-20T18:55:21.976Z,15.40
2022-09-20T19:00:21.872Z,15.42
2022-09-20T19:05:21.836Z,15.35
2022-09-20T19:10:21.789Z,15.18
2022-09-20T19:15:21.734Z,15.05
2022-09-20T19:20:21.674Z,14.81
2022-09-20T19:25:21.615Z,14.55
2022-09-20T19:30:21.547Z,14.36
2022-09-20T19:35:21.526Z,14.28
2022-09-20T19:40:21.526Z,14.26
2022-09-20T19:45:21.387Z,14.23
2022-09-20T19:50:21.435Z,14.23
2022-09-20T19:55:21.325Z,14.19
2022-09-20T20:00:21.225Z,14.03
2022-09-20T20:05:21.269Z,13.90
2022-09-20T20:10:21.139Z,13.73
2022-09-20T20:15:21.083Z,13.61
2022-09-20T20:20:21.026Z,13.45
2022-09-20T20:25:20.985Z,13.39
2022-09-20T20:30:20.908Z,13.43
2022-09-20T20:35:20.886Z,13.39
2022-09-20T20:40:20.868Z,13.35
2022-09-20T20:45:20.746Z,13.42
2022-09-20T20:50:20.702Z,13.42
2022-09-20T20:55:20.821Z,13.29
2022-09-20T21:00:20.594Z,13.34
2022-09-20T21:05:20.546Z,13.40
2022-09-20T21:10:20.499Z,13.44
2022-09-20T21:15:20.447Z,13.47
2022-09-20T21:20:20.387Z,13.53
2022-09-20T21:25:20.338Z,13.52
2022-09-20T21:30:20.265Z,13.54
2022-09-20T21:35:20.305Z,13.42
2022-09-20T21:40:20.240Z,13.25
2022-09-20T21:45:20.102Z,13.07
2022-09-20T21:50:20.062Z,12.90
2022-09-20T21:55:20.030Z,12.85
2022-09-20T22:00:19.967Z,12.70
2022-09-20T22:05:19.890Z,12.56
2022-09-20T22:10:19.846Z,12.46
2022-09-20T22:15:26.948Z,12.36
2022-09-20T22:20:19.727Z,12.24
2022-09-20T22:25:19.690Z,12.15
2022-09-20T22:30:19.642Z,12.22
2022-09-20T22:35:19.595Z,12.09
2022-09-20T22:40:19.617Z,12.17
2022-09-20T22:45:19.468Z,12.15
2022-09-20T22:50:19.414Z,12.05
2022-09-20T22:55:19.368Z,11.86
2022-09-20T23:00:19.307Z,11.73
2022-09-20T23:05:19.240Z,11.77
2022-09-20T23:10:19.210Z,11.86
2022-09-20T23:15:19.152Z,11.90
2022-09-20T23:20:19.098Z,11.91
2022-09-20T23:25:19.021Z,11.97
